createdAt,value
2023-04-22T00:00:11.500Z,10.50
2023-04-22T00:02:16.174Z,10.50
2023-04-22T00:04:20.755Z,10.50
2023-04-22T00:06:23.452Z,10.50
2023-04-22T00:08:26.015Z,10.50
2023-04-22T00:10:28.480Z,10.60
2023-04-22T00:12:31.407Z,10.60
2023-04-22T00:14:34.620Z,10.60
2023-04-22T00:16:37.182Z,10.50
2023-04-22T00:18:39.733Z,10.50
2023-04-22T00:20:43.169Z,10.50
2023-04-22T00:22:45.656Z,10.40
2023-04-22T00:24:48.141Z,10.30
2023-04-22T00:26:50.605Z,10.30
2023-04-22T00:28:53.092Z,10.20
2023-04-22T00:30:55.628Z,10.10
2023-04-22T00:32:58.316Z,10.10
2023-04-22T00:35:00.831Z,10.00
2023-04-22T00:37:03.653Z,10.00
2023-04-22T00:39:06.273Z,9.90
2023-04-22T00:41:09.452Z,9.90
2023-04-22T00:43:12.246Z,9.80
2023-04-22T00:45:17.225Z,9.60
2023-04-22T00:47:20.424Z,9.40
2023-04-22T00:49:23.231Z,9.40
2023-04-22T00:51:25.884Z,9.50
2023-04-22T00:53:28.491Z,9.50
2023-04-22T00:57:49.261Z,9.50
2023-04-22T00:59:52.333Z,9.50
2023-04-22T01:01:55.775Z,9.50
2023-04-22T01:03:59.248Z,9.40
2023-04-22T01:06:02.009Z,9.40
2023-04-22T01:08:04.535Z,9.10
2023-04-22T01:10:08.065Z,8.80
2023-04-22T01:12:10.619Z,8.60
2023-04-22T01:14:13.224Z,8.50
2023-04-22T01:16:15.865Z,8.50
2023-04-22T01:18:19.259Z,8.60
2023-04-22T01:20:22.844Z,8.70
2023-04-22T01:22:27.083Z,8.80
2023-04-22T01:24:29.707Z,8.80
2023-04-22T01:26:32.389Z,8.80
2023-04-22T01:28:35.022Z,8.90
2023-04-22T01:30:38.092Z,8.90
2023-04-22T01:32:42.532Z,8.90
2023-04-22T01:34:45.188Z,8.90
2023-04-22T01:36:48.539Z,8.90
2023-04-22T01:38:51.224Z,8.90
2023-04-22T01:40:53.936Z,8.90
2023-04-22T01:42:56.627Z,8.90
2023-04-22T01:44:59.570Z,8.80
2023-04-22T01:47:02.112Z,8.70
2023-04-22T01:49:04.597Z,8.60
2023-04-22T01:51:07.245Z,8.60
2023-04-22T01:53:11.222Z,8.60
2023-04-22T01:55:13.842Z,8.50
2023-04-22T01:57:18.328Z,8.60
2023-04-22T01:59:20.930Z,8.50
2023-04-22T02:01:24.704Z,8.50
2023-04-22T02:03:27.556Z,8.50
2023-04-22T02:05:30.256Z,8.60
2023-04-22T02:07:33.099Z,8.50
2023-04-22T02:09:35.711Z,8.50
2023-04-22T02:11:38.323Z,8.60
2023-04-22T02:13:41.002Z,8.70
2023-04-22T02:15:43.681Z,8.70
2023-04-22T02:17:46.152Z,8.70
2023-04-22T02:19:48.693Z,8.80
2023-04-22T02:21:51.540Z,8.80
2023-04-22T02:23:54.122Z,8.80
2023-04-22T02:25:56.681Z,8.80
2023-04-22T02:27:59.207Z,8.90
2023-04-22T02:30:01.782Z,8.90
2023-04-22T02:32:04.553Z,8.80
2023-04-22T02:34:07.626Z,8.80
2023-04-22T02:36:10.486Z,8.80
2023-04-22T02:38:13.086Z,8.60
2023-04-22T02:40:15.544Z,8.50
2023-04-22T02:42:18.143Z,8.40
2023-04-22T02:44:20.656Z,8.30
2023-04-22T02:46:23.556Z,8.40
2023-04-22T02:48:26.159Z,8.40
2023-04-22T02:50:28.770Z,8.60
2023-04-22T02:52:32.935Z,8.60
2023-04-22T02:54:35.555Z,8.70
2023-04-22T02:56:38.126Z,8.80
2023-04-22T02:58:40.602Z,8.90
2023-04-22T03:00:43.359Z,9.00
2023-04-22T03:02:46.274Z,9.00
2023-04-22T03:04:51.694Z,9.00
2023-04-22T03:06:54.292Z,9.00
2023-04-22T03:08:56.934Z,9.10
2023-04-22T03:10:59.508Z,9.00
2023-04-22T03:13:02.142Z,9.00
2023-04-22T03:15:06.212Z,9.10
2023-04-22T03:17:08.830Z,9.10
2023-04-22T03:19:11.715Z,9.10
2023-04-22T03:21:14.921Z,9.10
2023-04-22T03:23:17.477Z,9.10
2023-04-22T03:25:21.082Z,9.00
2023-04-22T03:27:25.464Z,9.00
2023-04-22T03:29:28.064Z,9.00
2023-04-22T03:31:30.747Z,9.00
2023-04-22T03:33:33.756Z,9.00
2023-04-22T03:35:38.165Z,9.00
2023-04-22T03:37:41.022Z,9.00
2023-04-22T03:39:43.752Z,9.00
2023-04-22T03:41:46.832Z,9.00
2023-04-22T03:43:49.408Z,9.00
2023-04-22T03:45:53.081Z,9.00
2023-04-22T03:47:57.551Z,9.00
2023-04-22T03:50:02.259Z,9.00
2023-04-22T03:52:06.625Z,9.10
2023-04-22T03:54:10.323Z,9.00
2023-04-22T03:56:14.748Z,9.00
2023-04-22T03:58:19.373Z,9.10
2023-04-22T04:00:22.564Z,9.10
2023-04-22T04:02:27.156Z,9.20
2023-04-22T04:04:31.981Z,9.20
2023-04-22T04:06:36.180Z,9.20
2023-04-22T04:08:39.451Z,9.30
2023-04-22T04:10:42.131Z,9.30
2023-04-22T04:12:44.696Z,9.40
2023-04-22T04:14:47.365Z,9.40
2023-04-22T04:16:51.740Z,9.40
2023-04-22T04:18:56.147Z,9.50
2023-04-22T04:20:59.736Z,9.60
2023-04-22T04:23:03.222Z,9.60
2023-04-22T04:25:07.022Z,9.50
2023-04-22T04:27:11.957Z,9.50
2023-04-22T04:29:18.123Z,9.50
2023-04-22T04:31:24.112Z,9.50
2023-04-22T04:33:28.000Z,9.50
2023-04-22T04:35:33.457Z,9.50
2023-04-22T04:37:36.552Z,9.50
2023-04-22T04:39:41.957Z,9.60
2023-04-22T04:41:44.999Z,9.60
2023-04-22T04:43:49.810Z,9.60
2023-04-22T04:45:54.194Z,9.70
2023-04-22T04:48:00.010Z,9.70
2023-04-22T04:50:04.916Z,9.70
2023-04-22T04:52:09.336Z,9.70
2023-04-22T04:54:12.063Z,9.70
2023-04-22T04:56:16.194Z,9.80
2023-04-22T04:58:19.181Z,9.80
2023-04-22T05:00:22.670Z,9.80
2023-04-22T05:02:25.568Z,9.80
2023-04-22T05:04:28.786Z,9.80
2023-04-22T05:06:32.434Z,9.80
2023-04-22T05:10:54.404Z,9.90
2023-04-22T05:12:57.077Z,9.90
2023-04-22T05:15:00.428Z,10.00
2023-04-22T05:17:03.313Z,10.00
2023-04-22T05:19:05.875Z,10.10
2023-04-22T05:21:08.768Z,10.00
2023-04-22T05:23:11.576Z,10.00
2023-04-22T05:25:14.187Z,10.00
2023-04-22T05:27:18.558Z,10.10
2023-04-22T05:29:21.103Z,10.10
2023-04-22T05:31:23.913Z,10.20
2023-04-22T05:33:27.175Z,10.30
2023-04-22T05:35:30.045Z,10.30
2023-04-22T05:37:34.098Z,10.30
2023-04-22T05:39:36.669Z,10.30
2023-04-22T05:41:41.034Z,10.20
2023-04-22T05:43:45.878Z,10.20
2023-04-22T05:45:50.316Z,10.10
2023-04-22T05:47:53.945Z,10.10
2023-04-22T05:49:56.805Z,10.10
2023-04-22T05:52:01.283Z,10.10
2023-04-22T05:54:06.623Z,10.00
2023-04-22T05:56:09.232Z,10.00
2023-04-22T05:58:11.816Z,10.00
2023-04-22T06:00:17.522Z,10.00
2023-04-22T06:02:21.989Z,10.10
2023-04-22T06:04:24.902Z,10.20
2023-04-22T06:06:27.759Z,10.30
2023-04-22T06:08:30.711Z,10.30
2023-04-22T06:10:33.199Z,10.50
2023-04-22T06:12:35.770Z,10.60
2023-04-22T06:14:38.362Z,10.70
2023-04-22T06:16:41.358Z,10.80
2023-04-22T06:18:44.048Z,10.90
2023-04-22T06:20:47.528Z,11.00
2023-04-22T06:22:51.072Z,11.10
2023-04-22T06:24:53.665Z,11.30
2023-04-22T06:26:57.547Z,11.30
2023-04-22T06:29:02.346Z,11.40
2023-04-22T06:31:05.102Z,11.50
2023-04-22T06:33:07.813Z,11.60
2023-04-22T06:35:11.010Z,11.80
2023-04-22T06:37:13.789Z,11.90
2023-04-22T06:39:16.479Z,11.90
2023-04-22T06:41:21.632Z,12.00
2023-04-22T06:43:25.194Z,12.20
2023-04-22T06:45:29.785Z,12.40
2023-04-22T06:47:34.333Z,12.50
2023-04-22T06:49:39.192Z,12.60
2023-04-22T06:51:43.947Z,12.80
2023-04-22T06:53:47.655Z,12.90
2023-04-22T06:55:52.920Z,13.00
2023-04-22T07:00:11.683Z,13.20
2023-04-22T07:02:15.489Z,13.40
2023-04-22T07:04:19.004Z,13.50
2023-04-22T07:06:21.685Z,13.60
2023-04-22T07:08:24.247Z,13.70
2023-04-22T07:10:26.870Z,13.80
2023-04-22T07:12:31.305Z,13.90
2023-04-22T07:14:33.939Z,14.00
2023-04-22T07:16:36.454Z,14.20
2023-04-22T07:18:39.436Z,14.40
2023-04-22T07:20:41.926Z,14.50
2023-04-22T07:22:44.501Z,14.60
2023-04-22T07:24:47.015Z,14.70
2023-04-22T07:26:49.628Z,14.80
2023-04-22T07:28:52.131Z,15.00
2023-04-22T07:30:54.595Z,15.10
2023-04-22T07:32:57.159Z,15.10
2023-04-22T07:34:59.652Z,15.20
2023-04-22T07:37:02.268Z,15.30
2023-04-22T07:39:04.706Z,15.30
2023-04-22T07:41:07.202Z,15.40
2023-04-22T07:43:09.701Z,15.50
2023-04-22T07:45:12.885Z,15.60
2023-04-22T07:47:15.375Z,15.80
2023-04-22T07:49:17.843Z,15.80
2023-04-22T07:51:20.328Z,15.90
2023-04-22T07:53:22.903Z,15.90
2023-04-22T07:55:25.576Z,16.00
2023-04-22T07:57:28.069Z,16.00
2023-04-22T07:59:30.584Z,16.00
2023-04-22T08:01:33.167Z,16.00
2023-04-22T08:03:35.907Z,16.10
2023-04-22T08:05:38.557Z,16.10
2023-04-22T08:07:41.170Z,16.10
2023-04-22T08:09:43.720Z,16.20
2023-04-22T08:11:46.263Z,16.30
2023-04-22T08:13:48.739Z,16.50
2023-04-22T08:15:51.418Z,16.60
2023-04-22T08:17:53.983Z,16.90
2023-04-22T08:19:56.531Z,17.10
2023-04-22T08:21:59.037Z,17.40
2023-04-22T08:24:01.512Z,17.60
2023-04-22T08:26:04.107Z,17.70
2023-04-22T08:28:06.595Z,17.90
2023-04-22T08:30:09.841Z,18.10
2023-04-22T08:32:12.328Z,18.30
2023-04-22T08:34:14.837Z,18.50
2023-04-22T08:36:17.420Z,18.60
2023-04-22T08:38:19.896Z,18.70
2023-04-22T08:40:22.637Z,19.00
2023-04-22T08:42:25.810Z,19.00
2023-04-22T08:44:28.569Z,19.10
2023-04-22T08:46:31.312Z,19.20
2023-04-22T08:48:33.928Z,19.30
2023-04-22T08:50:38.151Z,19.40
2023-04-22T08:52:41.916Z,19.50
2023-04-22T08:54:44.416Z,19.70
2023-04-22T08:56:48.755Z,19.80
2023-04-22T08:58:51.766Z,20.00
2023-04-22T09:00:54.470Z,20.10
2023-04-22T09:02:58.052Z,20.10
2023-04-22T09:05:01.524Z,19.90
2023-04-22T09:07:04.026Z,20.10
2023-04-22T09:09:08.006Z,20.40
2023-04-22T09:11:10.823Z,20.30
2023-04-22T09:13:13.539Z,20.10
2023-04-22T09:15:16.214Z,20.10
2023-04-22T09:17:20.533Z,20.00
2023-04-22T09:19:24.872Z,20.20
2023-04-22T09:23:49.302Z,20.40
2023-04-22T09:25:51.793Z,20.30
2023-04-22T09:27:55.423Z,20.30
2023-04-22T09:29:57.974Z,20.50
2023-04-22T09:32:00.889Z,20.50
2023-04-22T09:34:03.500Z,20.60
2023-04-22T09:38:23.325Z,20.40
2023-04-22T09:40:26.188Z,20.40
2023-04-22T09:42:29.078Z,20.50
2023-04-22T09:44:34.583Z,20.60
2023-04-22T09:46:37.194Z,20.40
2023-04-22T09:48:43.099Z,20.30
2023-04-22T09:50:46.695Z,20.50
2023-04-22T09:52:54.788Z,20.60
2023-04-22T09:54:57.287Z,20.40
2023-04-22T09:57:00.748Z,20.60
2023-04-22T09:59:03.665Z,20.70
2023-04-22T10:01:06.295Z,20.80
2023-04-22T10:03:10.895Z,21.00
2023-04-22T10:05:13.028Z,21.20
2023-04-22T10:07:16.940Z,21.20
2023-04-22T10:09:19.806Z,21.40
2023-04-22T10:11:22.256Z,21.70
2023-04-22T10:13:24.700Z,21.70
2023-04-22T10:15:29.133Z,21.70
2023-04-22T10:17:32.748Z,21.80
2023-04-22T10:19:35.496Z,21.70
2023-04-22T10:21:39.789Z,21.80
2023-04-22T10:23:46.394Z,22.00
2023-04-22T10:25:50.594Z,22.10
2023-04-22T10:27:53.989Z,22.10
2023-04-22T10:29:56.521Z,22.00
2023-04-22T10:32:02.734Z,21.90
2023-04-22T10:34:12.897Z,22.00
2023-04-22T10:36:16.956Z,22.00
2023-04-22T10:38:19.545Z,22.20
2023-04-22T10:40:22.717Z,22.40
2023-04-22T10:42:26.997Z,22.20
2023-04-22T10:44:30.394Z,22.20
2023-04-22T10:46:51.614Z,22.30
2023-04-22T10:48:55.863Z,22.20
2023-04-22T10:50:58.432Z,22.20
2023-04-22T10:53:02.985Z,22.30
2023-04-22T10:55:06.043Z,22.20
2023-04-22T10:57:09.434Z,22.30
2023-04-22T10:59:16.314Z,22.40
2023-04-22T11:01:18.776Z,22.50
2023-04-22T11:03:26.363Z,22.60
2023-04-22T11:05:28.964Z,22.60
2023-04-22T11:07:33.433Z,22.70
2023-04-22T11:09:40.094Z,22.70
2023-04-22T11:11:42.915Z,22.50
2023-04-22T11:13:46.883Z,22.50
2023-04-22T11:15:50.125Z,22.50
2023-04-22T11:17:53.712Z,22.60
2023-04-22T11:19:57.277Z,22.80
2023-04-22T11:21:59.860Z,23.00
2023-04-22T11:24:04.156Z,22.30
2023-04-22T11:26:06.773Z,22.10
2023-04-22T11:28:10.064Z,22.20
2023-04-22T11:30:14.406Z,22.20
2023-04-22T11:32:16.955Z,22.40
2023-04-22T11:34:19.442Z,22.80
2023-04-22T11:36:22.215Z,23.00
2023-04-22T11:38:24.704Z,23.10
2023-04-22T11:40:31.469Z,23.00
2023-04-22T11:42:32.380Z,22.80
2023-04-22T11:44:34.856Z,22.40
2023-04-22T11:46:38.962Z,22.20
2023-04-22T11:48:41.425Z,21.90
2023-04-22T11:50:44.237Z,21.90
2023-04-22T11:52:47.934Z,21.80
2023-04-22T11:54:50.387Z,21.70
2023-04-22T11:56:53.272Z,21.70
2023-04-22T11:58:55.737Z,21.70
2023-04-22T12:00:59.215Z,21.80
2023-04-22T12:03:02.286Z,22.00
2023-04-22T12:05:07.087Z,22.20
2023-04-22T12:07:09.598Z,22.40
2023-04-22T12:09:13.905Z,22.20
2023-04-22T12:11:16.400Z,22.30
2023-04-22T12:13:20.276Z,22.20
2023-04-22T12:15:23.649Z,22.20
2023-04-22T12:17:28.364Z,22.00
2023-04-22T12:19:30.557Z,21.80
2023-04-22T12:21:33.053Z,21.90
2023-04-22T12:23:41.343Z,21.90
2023-04-22T12:25:44.119Z,21.90
2023-04-22T12:27:46.604Z,21.70
2023-04-22T12:29:52.997Z,21.80
2023-04-22T12:31:55.482Z,21.90
2023-04-22T12:33:59.458Z,22.00
2023-04-22T12:38:17.115Z,22.10
2023-04-22T12:40:19.713Z,21.90
2023-04-22T12:42:22.183Z,21.80
2023-04-22T12:44:25.281Z,21.90
2023-04-22T12:46:27.941Z,22.10
2023-04-22T12:48:31.019Z,22.20
2023-04-22T12:50:33.476Z,22.40
2023-04-22T12:52:35.983Z,22.30
2023-04-22T12:54:38.447Z,22.20
2023-04-22T12:56:40.945Z,22.10
2023-04-22T12:58:43.440Z,22.10
2023-04-22T13:00:45.911Z,22.20
2023-04-22T13:02:49.213Z,22.00
2023-04-22T13:04:51.851Z,22.10
2023-04-22T13:06:55.991Z,22.10
2023-04-22T13:08:58.520Z,22.00
2023-04-22T13:11:01.247Z,22.00
2023-04-22T13:15:19.958Z,21.80
2023-04-22T13:17:22.540Z,21.90
2023-04-22T13:19:26.528Z,21.80
2023-04-22T13:21:29.070Z,21.80
2023-04-22T13:23:32.028Z,21.90
2023-04-22T13:25:34.501Z,22.00
2023-04-22T13:27:37.077Z,22.00
2023-04-22T13:29:39.701Z,22.00
2023-04-22T13:31:43.484Z,22.00
2023-04-22T13:33:46.811Z,21.90
2023-04-22T13:35:49.306Z,21.80
2023-04-22T13:37:52.296Z,21.80
2023-04-22T13:39:54.766Z,21.70
2023-04-22T13:41:57.219Z,21.70
2023-04-22T13:43:59.788Z,21.70
2023-04-22T13:46:02.293Z,21.70
2023-04-22T13:48:05.172Z,21.80
2023-04-22T13:50:08.783Z,21.80
2023-04-22T13:52:11.310Z,21.90
2023-04-22T13:54:13.784Z,21.90
2023-04-22T13:56:16.464Z,21.90
2023-04-22T13:58:19.052Z,21.80
2023-04-22T14:00:21.523Z,21.80
2023-04-22T14:02:24.215Z,21.80
2023-04-22T14:04:26.895Z,21.90
2023-04-22T14:06:29.780Z,21.90
2023-04-22T14:08:32.252Z,21.90
2023-04-22T14:10:34.720Z,21.80
2023-04-22T14:12:37.609Z,21.90
2023-04-22T14:14:40.061Z,21.90
2023-04-22T14:16:42.643Z,21.80
2023-04-22T14:18:45.787Z,21.80
2023-04-22T14:20:48.258Z,21.60
2023-04-22T14:22:50.822Z,21.60
2023-04-22T14:24:53.316Z,21.50
2023-04-22T14:26:57.585Z,21.40
2023-04-22T14:29:00.079Z,21.40
2023-04-22T14:31:02.596Z,21.40
2023-04-22T14:33:06.528Z,21.30
2023-04-22T14:35:09.472Z,21.20
2023-04-22T14:37:12.075Z,21.20
2023-04-22T14:39:14.559Z,21.20
2023-04-22T14:41:17.052Z,21.20
2023-04-22T14:43:19.612Z,21.20
2023-04-22T14:45:22.855Z,21.20
2023-04-22T14:47:25.416Z,21.30
2023-04-22T14:49:28.142Z,21.20
2023-04-22T14:51:32.020Z,21.10
2023-04-22T14:53:34.500Z,21.10
2023-04-22T14:55:36.978Z,21.00
2023-04-22T14:57:39.487Z,21.00
2023-04-22T14:59:42.179Z,21.00
2023-04-22T15:01:44.916Z,20.90
2023-04-22T15:03:48.216Z,20.80
2023-04-22T15:05:51.871Z,20.80
2023-04-22T15:07:54.368Z,20.70
2023-04-22T15:09:58.088Z,20.60
2023-04-22T15:12:02.374Z,20.60
2023-04-22T15:14:04.864Z,20.60
2023-04-22T15:16:07.379Z,20.50
2023-04-22T15:18:10.227Z,20.40
2023-04-22T15:20:13.083Z,20.40
2023-04-22T15:22:15.597Z,20.30
2023-04-22T15:24:19.448Z,20.10
2023-04-22T15:26:21.954Z,20.00
2023-04-22T15:28:24.458Z,19.70
2023-04-22T15:30:27.055Z,19.50
2023-04-22T15:32:29.551Z,19.30
2023-04-22T15:34:32.166Z,19.10
2023-04-22T15:38:52.491Z,18.80
2023-04-22T15:40:54.977Z,18.60
2023-04-22T15:42:57.437Z,18.40
2023-04-22T15:44:59.913Z,18.30
2023-04-22T15:47:02.561Z,18.20
2023-04-22T15:49:05.136Z,17.90
2023-04-22T15:51:07.619Z,17.80
2023-04-22T15:53:10.191Z,17.60
2023-04-22T15:55:12.764Z,17.40
2023-04-22T15:57:15.352Z,17.40
2023-04-22T15:59:17.853Z,17.20
2023-04-22T16:01:20.443Z,17.10
2023-04-22T16:03:23.259Z,17.00
2023-04-22T16:05:27.729Z,16.90
2023-04-22T16:07:30.220Z,16.80
2023-04-22T16:09:32.732Z,16.80
2023-04-22T16:11:35.203Z,16.70
2023-04-22T16:13:38.261Z,16.60
2023-04-22T16:15:40.762Z,16.50
2023-04-22T16:17:43.692Z,16.50
2023-04-22T16:19:46.236Z,16.40
2023-04-22T16:21:48.736Z,16.40
2023-04-22T16:23:51.211Z,16.30
2023-04-22T16:25:53.738Z,16.10
2023-04-22T16:27:56.195Z,16.10
2023-04-22T16:29:58.734Z,16.10
2023-04-22T16:32:01.213Z,16.20
2023-04-22T16:34:03.924Z,16.10
2023-04-22T16:36:08.462Z,16.20
2023-04-22T16:38:10.960Z,16.20
2023-04-22T16:40:13.594Z,16.20
2023-04-22T16:42:16.059Z,16.10
2023-04-22T16:44:18.532Z,16.10
2023-04-22T16:46:21.223Z,16.10
2023-04-22T16:48:23.760Z,16.20
2023-04-22T16:50:26.259Z,16.10
2023-04-22T16:52:28.809Z,16.10
2023-04-22T16:54:31.266Z,16.10
2023-04-22T16:56:33.739Z,16.00
2023-04-22T16:58:36.297Z,15.90
2023-04-22T17:00:38.792Z,15.90
2023-04-22T17:02:41.420Z,15.90
2023-04-22T17:04:44.300Z,16.00
2023-04-22T17:06:46.754Z,16.00
2023-04-22T17:08:49.239Z,15.90
2023-04-22T17:10:52.000Z,15.90
2023-04-22T17:12:54.468Z,15.90
2023-04-22T17:14:57.055Z,15.80
2023-04-22T17:16:59.593Z,15.80
2023-04-22T17:19:02.099Z,15.90
2023-04-22T17:21:04.568Z,16.00
2023-04-22T17:23:07.120Z,16.00
2023-04-22T17:25:10.090Z,16.10
2023-04-22T17:27:14.452Z,16.10
2023-04-22T17:29:18.833Z,16.10
2023-04-22T17:31:21.721Z,16.00
2023-04-22T17:33:25.810Z,16.10
2023-04-22T17:35:28.703Z,16.00
2023-04-22T17:37:31.143Z,16.20
2023-04-22T17:39:33.643Z,16.20
2023-04-22T17:41:36.192Z,16.20
2023-04-22T17:43:38.628Z,16.20
2023-04-22T17:45:41.113Z,16.20
2023-04-22T17:47:43.732Z,16.10
2023-04-22T17:49:46.234Z,16.10
2023-04-22T17:51:49.227Z,16.00
2023-04-22T17:53:52.516Z,16.00
2023-04-22T17:55:55.053Z,16.00
2023-04-22T17:57:59.349Z,16.00
2023-04-22T18:00:02.101Z,16.00
2023-04-22T18:02:06.569Z,16.00
2023-04-22T18:04:09.271Z,16.00
2023-04-22T18:06:12.264Z,16.00
2023-04-22T18:08:14.936Z,16.00
2023-04-22T18:10:17.409Z,16.00
2023-04-22T18:12:20.387Z,16.00
2023-04-22T18:14:22.934Z,16.00
2023-04-22T18:16:25.541Z,15.90
2023-04-22T18:18:28.141Z,15.90
2023-04-22T18:20:30.620Z,15.90
2023-04-22T18:22:33.150Z,15.90
2023-04-22T18:24:36.080Z,15.80
2023-04-22T18:26:38.605Z,15.70
2023-04-22T18:28:42.928Z,15.60
2023-04-22T18:30:45.410Z,15.50
2023-04-22T18:32:47.976Z,15.40
2023-04-22T18:34:50.585Z,15.30
2023-04-22T18:36:53.242Z,15.20
2023-04-22T18:38:55.738Z,15.30
2023-04-22T18:40:58.549Z,15.20
2023-04-22T18:43:01.053Z,15.20
2023-04-22T18:45:04.917Z,15.20
2023-04-22T18:47:07.690Z,15.10
2023-04-22T18:49:10.169Z,15.10
2023-04-22T18:51:12.937Z,15.10
2023-04-22T18:53:15.565Z,15.00
2023-04-22T18:55:18.074Z,14.80
2023-04-22T18:57:20.624Z,14.60
2023-04-22T18:59:23.109Z,14.60
2023-04-22T19:01:25.694Z,14.50
2023-04-22T19:03:28.565Z,14.40
2023-04-22T19:05:31.223Z,14.40
2023-04-22T19:07:33.913Z,14.30
2023-04-22T19:09:36.439Z,14.30
2023-04-22T19:11:38.951Z,14.20
2023-04-22T19:13:41.461Z,14.20
2023-04-22T19:15:44.149Z,14.20
2023-04-22T19:17:47.352Z,14.20
2023-04-22T19:19:49.903Z,14.10
2023-04-22T19:21:52.502Z,14.10
2023-04-22T19:23:55.038Z,14.10
2023-04-22T19:25:57.635Z,14.10
2023-04-22T19:28:00.157Z,14.10
2023-04-22T19:30:03.294Z,14.10
2023-04-22T19:32:06.600Z,14.10
2023-04-22T19:34:09.959Z,14.10
2023-04-22T19:36:12.512Z,14.00
2023-04-22T19:38:17.328Z,14.10
2023-04-22T19:40:19.953Z,14.10
2023-04-22T19:42:22.486Z,14.10
2023-04-22T19:44:25.222Z,14.10
2023-04-22T19:46:27.852Z,14.00
2023-04-22T19:48:31.346Z,14.00
2023-04-22T19:50:34.409Z,14.00
2023-04-22T19:52:37.149Z,14.00
2023-04-22T19:54:40.955Z,14.00
2023-04-22T19:56:44.608Z,14.00
2023-04-22T19:58:47.441Z,14.00
2023-04-22T20:00:50.443Z,14.00
2023-04-22T20:02:53.467Z,14.10
2023-04-22T20:04:56.531Z,14.10
2023-04-22T20:07:01.430Z,14.10
2023-04-22T20:09:04.873Z,14.10
2023-04-22T20:11:07.725Z,14.00
2023-04-22T20:13:10.421Z,14.10
2023-04-22T20:15:13.459Z,14.00
2023-04-22T20:17:16.305Z,14.00
2023-04-22T20:19:19.610Z,14.00
2023-04-22T20:21:22.214Z,14.00
2023-04-22T20:23:24.753Z,13.90
2023-04-22T20:25:28.259Z,13.90
2023-04-22T20:27:31.217Z,13.90
2023-04-22T20:29:35.219Z,13.80
2023-04-22T20:31:39.576Z,13.80
2023-04-22T20:33:42.587Z,13.70
2023-04-22T20:35:45.910Z,13.70
2023-04-22T20:37:50.267Z,13.70
2023-04-22T20:39:53.034Z,13.70
2023-04-22T20:41:56.095Z,13.70
2023-04-22T20:43:58.617Z,13.80
2023-04-22T20:46:01.293Z,13.80
2023-04-22T20:48:04.682Z,13.80
2023-04-22T20:50:08.062Z,13.90
2023-04-22T20:52:11.462Z,13.90
2023-04-22T20:54:27.781Z,13.80
2023-04-22T20:56:19.014Z,13.70
2023-04-22T20:58:21.564Z,13.70
2023-04-22T21:00:24.367Z,13.70
2023-04-22T21:02:27.586Z,13.60
2023-04-22T21:04:31.651Z,13.70
2023-04-22T21:06:34.607Z,13.80
2023-04-22T21:08:39.072Z,13.80
2023-04-22T21:10:42.118Z,13.70
2023-04-22T21:12:45.142Z,13.50
2023-04-22T21:14:48.401Z,13.30
2023-04-22T21:16:54.152Z,12.20
2023-04-22T21:18:58.693Z,13.00
2023-04-22T21:21:02.479Z,13.00
2023-04-22T21:23:07.050Z,12.90
2023-04-22T21:25:10.842Z,12.80
2023-04-22T21:27:13.646Z,12.80
2023-04-22T21:29:16.542Z,12.80
2023-04-22T21:31:19.538Z,12.70
2023-04-22T21:33:23.187Z,12.70
2023-04-22T21:35:25.862Z,12.70
2023-04-22T21:37:28.365Z,12.60
2023-04-22T21:39:31.060Z,12.60
2023-04-22T21:41:33.596Z,12.60
2023-04-22T21:43:36.050Z,12.60
2023-04-22T21:45:38.572Z,12.50
2023-04-22T21:47:41.267Z,12.50
2023-04-22T21:49:45.302Z,12.50
2023-04-22T21:51:47.779Z,12.50
2023-04-22T21:53:50.435Z,12.50
2023-04-22T21:55:53.002Z,12.50
2023-04-22T21:57:55.574Z,12.50
2023-04-22T21:59:58.175Z,12.50
2023-04-22T22:02:00.677Z,12.50
2023-04-22T22:04:03.362Z,12.50
2023-04-22T22:06:06.329Z,12.50
2023-04-22T22:08:08.853Z,12.50
2023-04-22T22:10:13.761Z,12.50
2023-04-22T22:12:16.273Z,12.50
2023-04-22T22:14:18.696Z,12.50
2023-04-22T22:16:21.325Z,12.50
2023-04-22T22:18:23.833Z,12.50
2023-04-22T22:20:26.507Z,12.50
2023-04-22T22:22:29.006Z,12.50
2023-04-22T22:24:31.557Z,12.50
2023-04-22T22:26:35.958Z,12.40
2023-04-22T22:28:38.674Z,12.40
2023-04-22T22:30:41.165Z,12.50
2023-04-22T22:32:43.687Z,12.40
2023-04-22T22:34:46.255Z,12.40
2023-04-22T22:36:48.749Z,12.50
2023-04-22T22:38:51.269Z,12.50
2023-04-22T22:40:53.817Z,12.50
2023-04-22T22:42:56.430Z,12.50
2023-04-22T22:44:58.921Z,12.50
2023-04-22T22:47:01.597Z,12.50
2023-04-22T22:49:04.142Z,12.50
2023-04-22T22:51:07.024Z,12.50
2023-04-22T22:53:09.509Z,12.50
2023-04-22T22:55:13.049Z,12.40
2023-04-22T22:57:16.334Z,12.50
2023-04-22T22:59:19.003Z,12.40
2023-04-22T23:01:21.581Z,12.40
2023-04-22T23:03:24.262Z,12.40
2023-04-22T23:05:29.366Z,12.30
2023-04-22T23:07:31.865Z,12.20
2023-04-22T23:09:34.405Z,12.20
2023-04-22T23:11:36.872Z,12.20
2023-04-22T23:13:39.359Z,12.10
2023-04-22T23:15:42.060Z,12.10
2023-04-22T23:17:44.604Z,12.10
2023-04-22T23:19:48.356Z,12.00
2023-04-22T23:21:51.545Z,12.00
2023-04-22T23:23:55.377Z,12.00
2023-04-22T23:26:00.090Z,12.00
2023-04-22T23:28:03.534Z,11.90
2023-04-22T23:30:08.651Z,11.90
2023-04-22T23:32:12.917Z,11.80
2023-04-22T23:34:16.859Z,11.80
2023-04-22T23:36:20.479Z,11.80
2023-04-22T23:38:23.022Z,11.70
2023-04-22T23:40:25.475Z,11.70
2023-04-22T23:42:28.130Z,11.70
2023-04-22T23:44:30.681Z,11.60
2023-04-22T23:46:33.134Z,11.60
2023-04-22T23:48:36.014Z,11.50
2023-04-22T23:50:38.488Z,11.50
2023-04-22T23:52:42.125Z,11.50
2023-04-22T23:54:45.366Z,11.40
2023-04-22T23:56:48.420Z,11.40
2023-04-22T23:58:51.455Z,11.30
